createdAt,value
2023-01-04T00:00:52.192Z,100545.97
2023-01-04T00:03:18.935Z,100538.22
2023-01-04T00:05:45.607Z,100539.38
2023-01-04T00:08:12.166Z,100540.25
2023-01-04T00:10:38.724Z,100531.69
2023-01-04T00:13:05.240Z,100533.88
2023-01-04T00:15:31.932Z,100535.50
2023-01-04T00:17:58.591Z,100547.09
2023-01-04T00:20:25.173Z,100533.06
2023-01-04T00:22:51.708Z,100521.50
2023-01-04T00:25:18.321Z,100519.34
2023-01-04T00:27:44.876Z,100509.09
2023-01-04T00:30:11.835Z,100511.78
2023-01-04T00:32:38.446Z,100518.22
2023-01-04T00:35:05.368Z,100512.34
2023-01-04T00:37:31.953Z,100514.31
2023-01-04T00:39:58.545Z,100507.03
2023-01-04T00:42:25.130Z,100500.59
2023-01-04T00:44:51.741Z,100505.97
2023-01-04T00:47:18.372Z,100497.91
2023-01-04T00:49:44.976Z,100486.34
2023-01-04T00:52:11.709Z,100494.97
2023-01-04T00:54:38.258Z,100487.72
2023-01-04T00:57:05.395Z,100478.59
2023-01-04T00:59:31.997Z,100478.59
2023-01-04T01:01:58.777Z,100476.97
2023-01-04T01:04:25.775Z,100475.41
2023-01-04T01:06:53.036Z,100469.25
2023-01-04T01:09:22.928Z,100468.44
2023-01-04T01:11:50.628Z,100462.56
2023-01-04T01:14:20.569Z,100468.50
2023-01-04T01:16:56.980Z,100474.19
2023-01-04T01:19:26.597Z,100462.66
2023-01-04T01:21:53.534Z,100459.72
2023-01-04T01:24:20.138Z,100462.97
2023-01-04T01:26:47.210Z,100465.44
2023-01-04T01:29:13.792Z,100457.09
2023-01-04T01:31:41.257Z,100456.28
2023-01-04T01:34:08.622Z,100466.22
2023-01-04T01:36:35.484Z,100466.78
2023-01-04T01:39:02.163Z,100448.78
2023-01-04T01:41:31.656Z,100453.31
2023-01-04T01:44:02.902Z,100445.53
2023-01-04T01:46:40.501Z,100441.50
2023-01-04T01:49:14.482Z,100429.41
2023-01-04T01:51:42.708Z,100435.59
2023-01-04T01:54:15.800Z,100434.56
2023-01-04T01:56:44.836Z,100427.78
2023-01-04T01:59:13.853Z,100427.53
2023-01-04T02:01:40.988Z,100426.22
2023-01-04T02:04:09.013Z,100424.34
2023-01-04T02:06:40.505Z,100421.38
2023-01-04T02:09:08.076Z,100412.75
2023-01-04T02:11:34.676Z,100410.06
2023-01-04T02:14:21.774Z,100409.81
2023-01-04T02:17:15.003Z,100400.38
2023-01-04T02:20:06.930Z,100407.66
2023-01-04T02:22:52.524Z,100406.81
2023-01-04T02:25:37.935Z,100394.94
2023-01-04T02:28:52.665Z,100402.47
2023-01-04T02:31:33.444Z,100400.31
2023-01-04T02:34:18.598Z,100395.50
2023-01-04T02:36:54.247Z,100394.44
2023-01-04T02:39:58.972Z,100399.25
2023-01-04T02:43:10.766Z,100403.56
2023-01-04T02:45:46.999Z,100398.75
2023-01-04T02:48:31.831Z,100392.03
2023-01-04T02:51:00.343Z,100395.53
2023-01-04T02:53:39.084Z,100387.72
2023-01-04T02:56:43.827Z,100378.81
2023-01-04T02:59:28.852Z,100350.53
2023-01-04T03:02:45.068Z,100367.50
2023-01-04T03:05:47.196Z,100358.13
2023-01-04T03:08:44.390Z,100353.81
2023-01-04T03:11:35.058Z,100356.22
2023-01-04T03:14:30.966Z,100343.84
2023-01-04T03:17:03.946Z,100340.91
2023-01-04T03:19:50.288Z,100333.06
2023-01-04T03:22:39.099Z,100331.75
2023-01-04T03:25:27.559Z,100330.94
2023-01-04T03:28:14.384Z,100333.38
2023-01-04T03:31:09.323Z,100328.50
2023-01-04T03:33:55.154Z,100317.75
2023-01-04T03:37:06.104Z,100301.28
2023-01-04T03:40:17.507Z,100295.91
2023-01-04T03:43:27.371Z,100299.97
2023-01-04T03:46:21.045Z,100301.31
2023-01-04T03:48:54.332Z,100296.47
2023-01-04T03:51:29.628Z,100297.03
2023-01-04T03:54:04.592Z,100298.09
2023-01-04T03:56:33.335Z,100287.34
2023-01-04T03:59:00.509Z,100287.59
2023-01-04T04:01:28.516Z,100281.94
2023-01-04T04:04:14.424Z,100284.09
2023-01-04T04:07:00.224Z,100284.09
2023-01-04T04:09:26.837Z,100288.38
2023-01-04T04:11:53.735Z,100286.75
2023-01-04T04:14:20.405Z,100290.50
2023-01-04T04:16:47.067Z,100281.88
2023-01-04T04:19:13.800Z,100287.78
2023-01-04T04:21:40.769Z,100288.84
2023-01-04T04:24:07.617Z,100283.41
2023-01-04T04:26:34.212Z,100290.91
2023-01-04T04:29:00.867Z,100279.88
2023-01-04T04:31:27.587Z,100275.28
2023-01-04T04:33:54.296Z,100272.88
2023-01-04T04:36:20.993Z,100264.50
2023-01-04T04:38:47.574Z,100260.97
2023-01-04T04:41:33.134Z,100266.88
2023-01-04T04:43:59.818Z,100260.69
2023-01-04T04:46:26.723Z,100254.75
2023-01-04T04:48:53.398Z,100266.59
2023-01-04T04:51:20.274Z,100276.84
2023-01-04T04:53:47.075Z,100287.31
2023-01-04T04:56:13.635Z,100288.16
2023-01-04T04:58:40.344Z,100285.47
2023-01-04T05:01:07.749Z,100277.44
2023-01-04T05:03:34.882Z,100280.66
2023-01-04T05:06:01.968Z,100271.00
2023-01-04T05:08:28.697Z,100266.47
2023-01-04T05:10:55.506Z,100262.69
2023-01-04T05:13:22.169Z,100265.94
2023-01-04T05:15:51.138Z,100261.94
2023-01-04T05:18:19.744Z,100260.88
2023-01-04T05:20:46.864Z,100264.09
2023-01-04T05:23:15.212Z,100266.53
2023-01-04T05:25:42.150Z,100269.22
2023-01-04T05:28:10.008Z,100264.09
2023-01-04T05:30:51.776Z,100249.03
2023-01-04T05:33:24.214Z,100241.75
2023-01-04T05:35:51.957Z,100243.38
2023-01-04T05:38:19.083Z,100255.47
2023-01-04T05:40:46.410Z,100258.72
2023-01-04T05:43:14.042Z,100252.81
2023-01-04T05:45:44.722Z,100249.06
2023-01-04T05:48:11.342Z,100253.94
2023-01-04T05:50:37.955Z,100247.47
2023-01-04T05:53:06.348Z,100244.00
2023-01-04T05:55:33.415Z,100241.72
2023-01-04T05:58:00.286Z,100249.63
2023-01-04T06:00:27.612Z,100229.28
2023-01-04T06:02:55.669Z,100232.91
2023-01-04T06:05:23.284Z,100213.56
2023-01-04T06:07:50.518Z,100218.19
2023-01-04T06:10:17.999Z,100218.91
2023-01-04T06:12:45.749Z,100210.34
2023-01-04T06:15:12.313Z,100214.66
2023-01-04T06:17:39.515Z,100200.69
2023-01-04T06:20:09.429Z,100199.06
2023-01-04T06:22:36.528Z,100207.66
2023-01-04T06:25:03.803Z,100196.31
2023-01-04T06:27:30.360Z,100197.94
2023-01-04T06:29:57.081Z,100224.91
2023-01-04T06:32:23.682Z,100200.53
2023-01-04T06:34:50.282Z,100178.97
2023-01-04T06:37:16.990Z,100179.50
2023-01-04T06:39:43.665Z,100184.38
2023-01-04T06:42:30.228Z,100176.28
2023-01-04T06:44:56.907Z,100174.66
2023-01-04T06:47:23.483Z,100168.72
2023-01-04T06:49:50.072Z,100159.56
2023-01-04T06:52:16.746Z,100164.97
2023-01-04T06:54:43.387Z,100157.41
2023-01-04T06:57:09.973Z,100163.41
2023-01-04T06:59:36.569Z,100176.38
2023-01-04T07:02:03.703Z,100166.13
2023-01-04T07:04:30.387Z,100177.69
2023-01-04T07:06:58.005Z,100198.38
2023-01-04T07:09:24.629Z,100187.56
2023-01-04T07:11:51.232Z,100196.97
2023-01-04T07:14:18.016Z,100195.59
2023-01-04T07:16:44.637Z,100206.91
2023-01-04T07:19:11.367Z,100219.03
2023-01-04T07:21:37.909Z,100223.63
2023-01-04T07:24:04.577Z,100204.22
2023-01-04T07:26:31.183Z,100195.03
2023-01-04T07:29:17.016Z,100189.66
2023-01-04T07:31:46.950Z,100196.38
2023-01-04T07:34:14.959Z,100196.09
2023-01-04T07:36:41.599Z,100204.97
2023-01-04T07:39:12.722Z,100197.72
2023-01-04T07:41:41.153Z,100193.97
2023-01-04T07:44:09.307Z,100179.94
2023-01-04T07:46:37.101Z,100172.41
2023-01-04T07:49:04.254Z,100169.97
2023-01-04T07:51:32.597Z,100152.47
2023-01-04T07:53:59.931Z,100178.88
2023-01-04T07:56:26.508Z,100161.34
2023-01-04T07:58:57.187Z,100173.50
2023-01-04T08:01:25.300Z,100176.22
2023-01-04T08:03:52.924Z,100189.69
2023-01-04T08:06:21.507Z,100181.91
2023-01-04T08:08:48.603Z,100180.56
2023-01-04T08:11:19.475Z,100175.72
2023-01-04T08:13:46.121Z,100184.34
2023-01-04T08:16:28.429Z,100187.59
2023-01-04T08:18:56.125Z,100191.38
2023-01-04T08:21:23.809Z,100195.13
2023-01-04T08:23:51.911Z,100199.47
2023-01-04T08:26:19.596Z,100201.06
2023-01-04T08:28:46.211Z,100212.69
2023-01-04T08:31:18.902Z,100200.53
2023-01-04T08:33:46.710Z,100198.66
2023-01-04T08:36:26.328Z,100197.31
2023-01-04T08:38:59.949Z,100200.84
2023-01-04T08:44:14.265Z,100192.47
2023-01-04T08:46:40.928Z,100187.34
2023-01-04T08:49:08.077Z,100214.66
2023-01-04T08:51:35.058Z,100199.56
2023-01-04T08:54:01.619Z,100200.34
2023-01-04T08:56:28.198Z,100207.09
2023-01-04T08:58:54.870Z,100194.16
2023-01-04T09:01:21.709Z,100201.72
2023-01-04T09:03:48.330Z,100190.38
2023-01-04T09:06:16.217Z,100198.53
2023-01-04T09:08:44.325Z,100192.28
2023-01-04T09:11:16.572Z,100199.84
2023-01-04T09:13:44.340Z,100211.75
2023-01-04T09:16:17.161Z,100214.44
2023-01-04T09:18:45.168Z,100207.16
2023-01-04T09:21:14.556Z,100199.34
2023-01-04T09:23:42.853Z,100201.25
2023-01-04T09:26:18.302Z,100189.91
2023-01-04T09:28:45.299Z,100207.19
2023-01-04T09:31:16.811Z,100201.78
2023-01-04T09:36:31.300Z,100208.78
2023-01-04T09:38:57.947Z,100209.88
2023-01-04T09:41:27.561Z,100206.09
2023-01-04T09:43:54.137Z,100196.38
2023-01-04T09:46:52.148Z,100196.38
2023-01-04T09:49:29.202Z,100186.69
2023-01-04T09:52:12.343Z,100183.69
2023-01-04T09:55:37.008Z,100185.59
2023-01-04T09:58:04.099Z,100184.50
2023-01-04T10:00:44.944Z,100194.22
2023-01-04T10:03:17.468Z,100185.56
2023-01-04T10:05:44.624Z,100186.13
2023-01-04T10:08:20.136Z,100161.81
2023-01-04T10:11:10.905Z,100185.06
2023-01-04T10:14:11.872Z,100191.53
2023-01-04T10:22:42.896Z,100188.81
2023-01-04T10:25:15.353Z,100175.84
2023-01-04T10:27:43.186Z,100153.16
2023-01-04T10:30:27.998Z,100143.41
2023-01-04T10:33:15.696Z,100157.47
2023-01-04T10:35:45.704Z,100153.13
2023-01-04T10:38:24.036Z,100158.53
2023-01-04T10:40:50.734Z,100167.97
2023-01-04T10:43:17.237Z,100175.28
2023-01-04T10:45:51.640Z,100162.56
2023-01-04T10:48:21.189Z,100163.41
2023-01-04T10:51:09.316Z,100161.22
2023-01-04T10:54:06.240Z,100153.13
2023-01-04T10:57:06.798Z,100129.91
2023-01-04T10:59:52.456Z,100140.72
2023-01-04T11:02:28.245Z,100135.56
2023-01-04T11:05:02.730Z,100142.56
2023-01-04T11:07:39.420Z,100142.84
2023-01-04T11:10:17.517Z,100154.47
2023-01-04T11:12:45.894Z,100146.63
2023-01-04T11:15:12.779Z,100140.13
2023-01-04T11:17:41.624Z,100122.28
2023-01-04T11:20:09.051Z,100127.41
2023-01-04T11:22:38.879Z,100122.00
2023-01-04T11:28:02.943Z,100109.84
2023-01-04T11:30:41.319Z,100106.06
2023-01-04T11:33:22.608Z,100103.88
2023-01-04T11:35:55.818Z,100087.69
2023-01-04T11:38:31.395Z,100088.75
2023-01-04T11:41:00.809Z,100086.63
2023-01-04T11:43:30.584Z,100096.59
2023-01-04T11:46:00.332Z,100092.03
2023-01-04T11:48:45.400Z,100103.38
2023-01-04T11:51:36.863Z,100095.25
2023-01-04T11:54:15.501Z,100076.91
2023-01-04T11:57:12.226Z,100080.13
2023-01-04T11:59:39.327Z,100073.63
2023-01-04T12:05:28.741Z,100082.06
2023-01-04T12:07:56.701Z,100076.66
2023-01-04T12:10:27.234Z,100066.66
2023-01-04T12:12:55.479Z,100067.47
2023-01-04T12:15:34.799Z,100048.56
2023-01-04T12:18:07.928Z,100057.22
2023-01-04T12:20:36.286Z,100047.78
2023-01-04T12:23:02.919Z,100052.66
2023-01-04T12:25:39.810Z,100049.97
2023-01-04T12:28:06.867Z,100027.81
2023-01-04T12:30:47.261Z,100034.28
2023-01-04T12:33:32.005Z,100037.56
2023-01-04T12:36:00.359Z,100038.06
2023-01-04T12:38:54.805Z,100046.19
2023-01-04T12:42:00.821Z,100033.25
2023-01-04T12:44:37.033Z,100029.47
2023-01-04T12:47:43.792Z,100047.25
2023-01-04T12:50:24.985Z,100048.34
2023-01-04T12:53:38.770Z,100027.56
2023-01-04T12:55:45.600Z,100037.53
2023-01-04T12:58:42.289Z,100032.16
2023-01-04T13:01:28.080Z,100021.31
2023-01-04T13:04:04.590Z,100026.69
2023-01-04T13:06:40.011Z,100021.03
2023-01-04T13:09:23.823Z,100019.94
2023-01-04T13:12:06.182Z,100040.47
2023-01-04T13:14:57.770Z,100024.50
2023-01-04T13:17:26.509Z,100027.75
2023-01-04T13:19:53.327Z,100017.22
2023-01-04T13:22:29.370Z,100006.44
2023-01-04T13:24:59.389Z,100007.22
2023-01-04T13:27:27.266Z,100001.59
2023-01-04T13:29:54.100Z,99993.47
2023-01-04T13:32:46.957Z,99992.16
2023-01-04T13:35:20.858Z,99981.91
2023-01-04T13:37:50.000Z,99970.03
2023-01-04T13:40:28.728Z,99966.75
2023-01-04T13:43:23.978Z,99966.75
2023-01-04T13:45:53.347Z,99972.16
2023-01-04T13:48:23.872Z,99974.34
2023-01-04T13:51:15.656Z,99954.91
2023-01-04T13:53:42.505Z,99963.53
2023-01-04T13:56:21.780Z,99963.53
2023-01-04T13:58:48.604Z,99965.16
2023-01-04T14:01:24.325Z,99970.03
2023-01-04T14:03:55.453Z,99964.88
2023-01-04T14:06:27.180Z,99958.41
2023-01-04T14:09:43.630Z,99953.25
2023-01-04T14:12:20.293Z,99954.09
2023-01-04T14:14:55.685Z,99964.84
2023-01-04T14:17:30.861Z,99945.38
2023-01-04T14:20:02.214Z,99950.78
2023-01-04T14:22:50.126Z,99958.59
2023-01-04T14:25:38.301Z,99948.34
2023-01-04T14:28:28.656Z,99940.50
2023-01-04T14:31:01.507Z,99952.84
2023-01-04T14:33:36.040Z,99941.47
2023-01-04T14:36:09.937Z,99952.00
2023-01-04T14:38:44.035Z,99956.84
2023-01-04T14:41:42.730Z,99949.84
2023-01-04T14:44:11.677Z,99939.59
2023-01-04T14:46:39.345Z,99942.84
2023-01-04T14:49:06.086Z,99935.28
2023-01-04T14:51:46.382Z,99944.44
2023-01-04T14:54:20.477Z,99954.16
2023-01-04T14:56:50.894Z,99943.59
2023-01-04T14:59:17.594Z,99942.81
2023-01-04T15:01:44.382Z,99945.50
2023-01-04T15:04:11.297Z,99949.84
2023-01-04T15:06:47.768Z,99943.38
2023-01-04T15:09:14.320Z,99952.56
2023-01-04T15:11:40.940Z,99946.59
2023-01-04T15:14:07.565Z,99929.88
2023-01-04T15:16:34.201Z,99930.97
2023-01-04T15:19:00.801Z,99950.44
2023-01-04T15:21:27.521Z,99941.81
2023-01-04T15:23:54.108Z,99944.50
2023-01-04T15:26:20.708Z,99951.22
2023-01-04T15:28:47.272Z,99931.53
2023-01-04T15:31:14.786Z,99934.75
2023-01-04T15:33:41.418Z,99925.81
2023-01-04T15:36:11.807Z,99936.38
2023-01-04T15:38:38.480Z,99937.97
2023-01-04T15:41:33.035Z,99939.06
2023-01-04T15:43:59.664Z,99925.25
2023-01-04T15:46:26.329Z,99928.47
2023-01-04T15:48:52.981Z,99932.00
2023-01-04T15:51:19.631Z,99932.00
2023-01-04T15:53:46.176Z,99928.22
2023-01-04T15:56:13.025Z,99931.16
2023-01-04T15:58:39.669Z,99931.41
2023-01-04T16:01:11.791Z,99926.00
2023-01-04T16:03:38.795Z,99928.13
2023-01-04T16:06:13.627Z,99939.22
2023-01-04T16:08:41.206Z,99925.97
2023-01-04T16:11:13.952Z,99910.25
2023-01-04T16:13:41.084Z,99924.00
2023-01-04T16:16:08.588Z,99925.66
2023-01-04T16:18:35.851Z,99932.38
2023-01-04T16:21:06.850Z,99936.16
2023-01-04T16:23:33.449Z,99945.09
2023-01-04T16:26:07.182Z,99927.78
2023-01-04T16:28:34.340Z,99925.59
2023-01-04T16:31:01.140Z,99929.09
2023-01-04T16:33:28.266Z,99915.00
2023-01-04T16:36:04.006Z,99915.56
2023-01-04T16:38:30.877Z,99905.81
2023-01-04T16:41:01.953Z,99912.03
2023-01-04T16:43:30.481Z,99907.97
2023-01-04T16:46:12.463Z,99919.88
2023-01-04T16:48:42.314Z,99918.81
2023-01-04T16:51:08.898Z,99896.06
2023-01-04T16:53:36.490Z,99905.72
2023-01-04T16:56:04.703Z,99916.22
2023-01-04T16:58:31.334Z,99927.25
2023-01-04T17:01:15.812Z,99911.59
2023-01-04T17:03:43.729Z,99892.16
2023-01-04T17:06:19.943Z,99903.78
2023-01-04T17:08:48.564Z,99911.59
2023-01-04T17:12:11.441Z,99904.00
2023-01-04T17:14:08.289Z,99897.56
2023-01-04T17:16:35.503Z,99902.91
2023-01-04T17:19:02.449Z,99899.88
2023-01-04T17:21:34.660Z,99880.09
2023-01-04T17:24:02.122Z,99890.84
2023-01-04T17:26:30.558Z,99885.97
2023-01-04T17:28:58.902Z,99882.69
2023-01-04T17:31:40.221Z,99890.22
2023-01-04T17:34:09.961Z,99894.25
2023-01-04T17:36:37.439Z,99893.16
2023-01-04T17:39:04.217Z,99906.41
2023-01-04T17:41:31.685Z,99905.03
2023-01-04T17:44:06.791Z,99910.44
2023-01-04T17:46:37.430Z,99906.69
2023-01-04T17:49:22.259Z,99898.31
2023-01-04T17:51:51.075Z,99898.81
2023-01-04T17:54:18.162Z,99899.34
2023-01-04T17:56:44.728Z,99914.16
2023-01-04T17:59:12.039Z,99902.81
2023-01-04T18:01:38.839Z,99892.25
2023-01-04T18:04:06.029Z,99901.97
2023-01-04T18:06:35.967Z,99901.41
2023-01-04T18:09:05.329Z,99909.53
2023-01-04T18:11:31.920Z,99906.22
2023-01-04T18:13:58.815Z,99903.25
2023-01-04T18:16:27.680Z,99913.25
2023-01-04T18:18:55.515Z,99914.88
2023-01-04T18:21:28.597Z,99917.31
2023-01-04T18:24:34.583Z,99914.88
2023-01-04T18:27:19.938Z,99915.44
2023-01-04T18:29:34.185Z,99906.81
2023-01-04T18:32:01.049Z,99900.59
2023-01-04T18:34:27.743Z,99897.16
2023-01-04T18:36:54.446Z,99918.78
2023-01-04T18:39:21.528Z,99913.38
2023-01-04T18:41:48.566Z,99914.41
2023-01-04T18:47:03.114Z,99908.66
2023-01-04T18:49:29.820Z,99916.19
2023-01-04T18:51:56.436Z,99925.09
2023-01-04T18:54:23.083Z,99916.38
2023-01-04T18:56:49.795Z,99925.00
2023-01-04T18:59:19.251Z,99915.00
2023-01-04T19:01:46.193Z,99915.72
2023-01-04T19:04:13.711Z,99924.38
2023-01-04T19:06:41.037Z,99943.31
2023-01-04T19:09:08.546Z,99946.53
2023-01-04T19:11:36.049Z,99943.56
2023-01-04T19:14:03.640Z,99951.69
2023-01-04T19:16:31.662Z,99948.19
2023-01-04T19:19:00.961Z,99947.59
2023-01-04T19:21:28.732Z,99943.81
2023-01-04T19:23:56.003Z,99929.44
2023-01-04T19:26:23.809Z,99933.47
2023-01-04T19:28:51.330Z,99941.31
2023-01-04T19:31:20.678Z,99937.81
2023-01-04T19:33:48.217Z,99935.09
2023-01-04T19:36:16.813Z,99934.00
2023-01-04T19:38:43.377Z,99944.53
2023-01-04T19:41:26.358Z,99935.59
2023-01-04T19:43:57.855Z,99938.81
2023-01-04T19:46:24.550Z,99943.44
2023-01-04T19:48:51.119Z,99928.00
2023-01-04T19:51:17.879Z,99918.78
2023-01-04T19:53:44.670Z,99926.09
2023-01-04T19:56:12.277Z,99928.00
2023-01-04T19:58:39.460Z,99930.78
2023-01-04T20:01:06.645Z,99934.56
2023-01-04T20:03:33.749Z,99939.41
2023-01-04T20:06:05.273Z,99935.59
2023-01-04T20:08:32.800Z,99929.88
2023-01-04T20:11:01.365Z,99935.03
2023-01-04T20:13:29.796Z,99926.03
2023-01-04T20:15:56.378Z,99938.19
2023-01-04T20:18:26.020Z,99933.28
2023-01-04T20:20:52.880Z,99933.28
2023-01-04T20:23:21.804Z,99920.03
2023-01-04T20:25:53.247Z,99937.66
2023-01-04T20:28:22.594Z,99924.19
2023-01-04T20:30:49.478Z,99917.16
2023-01-04T20:33:16.096Z,99917.16
2023-01-04T20:35:44.232Z,99916.56
2023-01-04T20:38:12.119Z,99909.56
2023-01-04T20:40:39.251Z,99911.16
2023-01-04T20:43:24.991Z,99893.81
2023-01-04T20:45:51.760Z,99901.34
2023-01-04T20:48:18.680Z,99900.75
2023-01-04T20:50:45.347Z,99901.00
2023-01-04T20:53:13.574Z,99894.78
2023-01-04T20:55:42.059Z,99888.28
2023-01-04T20:58:09.677Z,99886.63
2023-01-04T21:00:39.829Z,99896.06
2023-01-04T21:03:08.212Z,99890.44
2023-01-04T21:05:43.154Z,99897.47
2023-01-04T21:08:10.870Z,99880.38
2023-01-04T21:10:41.712Z,99879.59
2023-01-04T21:13:08.541Z,99877.69
2023-01-04T21:15:37.174Z,99893.16
2023-01-04T21:18:07.428Z,99883.13
2023-01-04T21:20:34.246Z,99881.75
2023-01-04T21:23:00.810Z,99883.13
2023-01-04T21:25:27.409Z,99873.69
2023-01-04T21:27:53.968Z,99881.88
2023-01-04T21:30:20.980Z,99881.97
2023-01-04T21:32:47.644Z,99852.75
2023-01-04T21:35:14.210Z,99873.59
2023-01-04T21:37:40.746Z,99858.97
2023-01-04T21:40:07.787Z,99858.19
2023-01-04T21:42:34.482Z,99851.94
2023-01-04T21:45:01.053Z,99869.25
2023-01-04T21:47:30.654Z,99863.59
2023-01-04T21:49:57.265Z,99860.38
2023-01-04T21:52:23.958Z,99853.84
2023-01-04T21:54:50.533Z,99840.91
2023-01-04T21:57:17.239Z,99847.09
2023-01-04T21:59:43.903Z,99843.63
2023-01-04T22:02:15.700Z,99840.00
2023-01-04T22:04:42.544Z,99841.63
2023-01-04T22:07:09.496Z,99848.66
2023-01-04T22:09:36.284Z,99848.94
2023-01-04T22:12:05.223Z,99856.56
2023-01-04T22:14:33.195Z,99848.78
2023-01-04T22:17:00.425Z,99845.28
2023-01-04T22:19:27.537Z,99845.28
2023-01-04T22:21:54.105Z,99845.56
2023-01-04T22:24:20.731Z,99858.88
2023-01-04T22:26:49.287Z,99858.88
2023-01-04T22:29:16.258Z,99855.06
2023-01-04T22:31:42.981Z,99859.91
2023-01-04T22:34:09.684Z,99865.31
2023-01-04T22:36:36.256Z,99875.88
2023-01-04T22:39:02.908Z,99889.91
2023-01-04T22:41:29.504Z,99869.59
2023-01-04T22:43:58.094Z,99871.19
2023-01-04T22:46:26.530Z,99875.22
2023-01-04T22:48:53.198Z,99875.44
2023-01-04T22:51:20.595Z,99877.56
2023-01-04T22:53:47.975Z,99878.38
2023-01-04T22:56:21.072Z,99874.84
2023-01-04T22:58:53.456Z,99873.25
2023-01-04T23:01:26.509Z,99872.22
2023-01-04T23:03:53.392Z,99881.00
2023-01-04T23:06:20.676Z,99877.72
2023-01-04T23:08:47.288Z,99878.44
2023-01-04T23:11:16.833Z,99873.84
2023-01-04T23:13:43.686Z,99878.66
2023-01-04T23:16:12.822Z,99876.69
2023-01-04T23:18:40.155Z,99867.16
2023-01-04T23:21:07.671Z,99869.78
2023-01-04T23:23:34.271Z,99880.53
2023-01-04T23:26:06.433Z,99880.47
2023-01-04T23:28:36.084Z,99882.88
2023-01-04T23:31:05.160Z,99877.47
2023-01-04T23:33:35.850Z,99867.97
2023-01-04T23:36:15.562Z,99877.97
2023-01-04T23:38:43.279Z,99852.50
2023-01-04T23:41:11.555Z,99841.38
2023-01-04T23:43:39.010Z,99856.53
2023-01-04T23:46:12.448Z,99868.16
2023-01-04T23:48:39.452Z,99853.81
2023-01-04T23:51:06.234Z,99853.59
2023-01-04T23:53:32.888Z,99858.22
2023-01-04T23:56:05.440Z,99856.59
2023-01-04T23:58:32.965Z,99854.69
